Time;durP1;ratioP1;P1;durP2;ratioP2;P2;SDS_P1;SDS_P2;PMS_P1;PMS_P2;Temp;Humidity;BMP_temperature;BMP_pressure;BME280_temperature;BME280_humidity;BME280_pressure;Samples;Min_cycle;Max_cycle;Signal;HPM_P1;HPM_P2
2024/01/22 00:00:20;;;;;;;21.47;13.60;;;;;21.50;100143.00;;;;2050771;28;20212;-59
2024/01/22 00:01:20;;;;;;;18.17;11.93;;;;;21.50;100133.00;;;;2053117;28;20215;-58
2024/01/22 00:02:21;;;;;;;18.93;13.20;;;;;21.50;100127.00;;;;2046481;28;20223;-58
2024/01/22 00:03:21;;;;;;;17.30;11.37;;;;;21.50;100130.00;;;;2040244;28;20222;-59
2024/01/22 00:04:21;;;;;;;16.60;12.00;;;;;21.50;100128.00;;;;2052182;28;20218;-59
2024/01/22 00:05:22;;;;;;;17.00;11.83;;;;;21.50;100129.00;;;;2052473;28;20223;-57
2024/01/22 00:06:22;;;;;;;19.20;12.80;;;;;21.50;100123.00;;;;2051402;28;20226;-58
2024/01/22 00:07:22;;;;;;;18.97;12.00;;;;;21.50;100108.00;;;;2043833;28;20239;-58
2024/01/22 00:08:23;;;;;;;19.60;11.23;;;;;21.50;100092.00;;;;2039508;28;20239;-58
2024/01/22 00:09:23;;;;;;;18.13;12.77;;;;;21.50;100103.00;;;;2044395;28;20216;-56
2024/01/22 00:10:23;;;;;;;16.27;11.10;;;;;21.50;100084.00;;;;2048065;28;20255;-59
2024/01/22 00:11:24;;;;;;;16.00;11.53;;;;;21.50;100110.00;;;;2044534;28;20216;-58
2024/01/22 00:12:24;;;;;;;20.30;12.27;;;;;21.40;100091.00;;;;2044621;28;20807;-57
2024/01/22 00:13:24;;;;;;;17.77;11.50;;;;;21.50;100102.00;;;;2029034;28;20758;-58
2024/01/22 00:14:25;;;;;;;15.27;10.80;;;;;21.50;100091.00;;;;2053414;28;20948;-57
2024/01/22 00:15:25;;;;;;;18.27;12.43;;;;;21.40;100104.00;;;;2053004;28;20932;-58
2024/01/22 00:16:26;;;;;;;17.80;11.70;;;;;21.40;100080.00;;;;2048590;28;20216;-58
2024/01/22 00:17:26;;;;;;;17.20;10.57;;;;;21.40;100091.00;;;;2043064;28;20247;-57
2024/01/22 00:18:27;;;;;;;15.13;10.37;;;;;21.40;100082.00;;;;2035067;28;23274;-58
2024/01/22 00:19:27;;;;;;;16.97;10.10;;;;;21.40;100077.00;;;;2044405;28;20220;-58
2024/01/22 00:20:27;;;;;;;14.60;10.37;;;;;21.40;100081.00;;;;2049012;28;20575;-58
2024/01/22 00:21:28;;;;;;;15.93;10.30;;;;;21.40;100084.00;;;;2047905;28;20560;-58
2024/01/22 00:22:28;;;;;;;17.80;10.83;;;;;21.40;100081.00;;;;2045045;28;20637;-59
2024/01/22 00:23:29;;;;;;;15.67;10.80;;;;;21.40;100075.00;;;;2035619;28;20613;-57
2024/01/22 00:24:29;;;;;;;16.40;10.20;;;;;21.40;100077.00;;;;2052424;28;20730;-58
2024/01/22 00:25:29;;;;;;;15.70;8.80;;;;;21.40;100074.00;;;;2052842;28;20223;-58
2024/01/22 00:26:30;;;;;;;19.27;10.60;;;;;21.40;100084.00;;;;2049831;28;20628;-58
2024/01/22 00:27:30;;;;;;;15.30;9.77;;;;;21.40;100058.00;;;;2044684;28;20641;-57
2024/01/22 00:28:30;;;;;;;14.07;9.13;;;;;21.40;100078.00;;;;2038070;28;20235;-58
2024/01/22 00:29:31;;;;;;;16.00;9.50;;;;;21.40;100063.00;;;;2044210;28;20220;-57
2024/01/22 00:30:31;;;;;;;16.13;10.23;;;;;21.30;100062.00;;;;2047701;28;20215;-58
2024/01/22 00:31:31;;;;;;;14.53;9.97;;;;;21.40;100067.00;;;;2052686;28;20230;-58
2024/01/22 00:32:32;;;;;;;16.37;10.20;;;;;21.30;100063.00;;;;2052464;28;20295;-59
2024/01/22 00:33:32;;;;;;;15.20;9.80;;;;;21.30;100062.00;;;;2038915;28;20220;-57
2024/01/22 00:34:32;;;;;;;13.97;9.90;;;;;21.30;100053.00;;;;2044709;28;20850;-57
2024/01/22 00:35:33;;;;;;;16.07;10.10;;;;;21.30;100067.00;;;;2050460;28;20711;-57
2024/01/22 00:36:33;;;;;;;14.30;8.90;;;;;21.30;100056.00;;;;2055457;28;20832;-59
2024/01/22 00:37:33;;;;;;;13.37;9.20;;;;;21.30;100059.00;;;;2048602;28;20743;-57
2024/01/22 00:38:33;;;;;;;15.20;9.53;;;;;21.30;100061.00;;;;2045685;28;20227;-58
2024/01/22 00:39:34;;;;;;;12.23;8.13;;;;;21.30;100048.00;;;;2045049;28;20295;-58
2024/01/22 00:40:34;;;;;;;12.77;9.10;;;;;21.30;100016.00;;;;2049159;28;20216;-57
2024/01/22 00:41:34;;;;;;;14.13;9.23;;;;;21.30;100023.00;;;;2047713;28;20281;-58
2024/01/22 00:42:35;;;;;;;12.67;8.27;;;;;21.30;100032.00;;;;2051400;28;20278;-58
2024/01/22 00:43:36;;;;;;;13.87;9.10;;;;;21.30;100026.00;;;;2042666;28;20231;-59
2024/01/22 00:44:36;;;;;;;12.17;8.23;;;;;21.30;100019.00;;;;2052680;28;20223;-57
2024/01/22 00:45:37;;;;;;;13.27;8.30;;;;;21.30;100016.00;;;;2051254;28;20460;-57
2024/01/22 00:46:38;;;;;;;11.75;8.43;;;;;21.30;100021.00;;;;2046044;28;20227;-58
2024/01/22 00:47:38;;;;;;;13.00;8.10;;;;;21.20;100018.00;;;;2046591;28;20248;-57
2024/01/22 00:48:38;;;;;;;13.00;8.30;;;;;21.30;100015.00;;;;2044879;28;20228;-57
2024/01/22 00:49:39;;;;;;;13.07;8.13;;;;;21.20;100011.00;;;;2049720;28;20216;-57
2024/01/22 00:50:39;;;;;;;13.80;7.63;;;;;21.20;100003.00;;;;2050549;28;20224;-57
2024/01/22 00:51:39;;;;;;;12.23;7.53;;;;;21.20;100002.00;;;;2048389;28;20631;-59
2024/01/22 00:52:40;;;;;;;12.43;7.43;;;;;21.30;99994.00;;;;2046392;28;20625;-57
2024/01/22 00:53:40;;;;;;;11.87;8.07;;;;;21.30;99999.00;;;;2040434;28;20253;-58
2024/01/22 00:54:40;;;;;;;11.97;8.20;;;;;21.20;99988.00;;;;2049518;28;20215;-58
2024/01/22 00:55:41;;;;;;;12.53;7.40;;;;;21.30;99980.00;;;;2049856;28;20239;-57
2024/01/22 00:56:41;;;;;;;12.93;7.83;;;;;21.30;99993.00;;;;2049570;28;20216;-57
2024/01/22 00:57:41;;;;;;;12.30;7.83;;;;;21.20;99976.00;;;;2045933;28;20281;-57
2024/01/22 00:58:42;;;;;;;11.10;6.60;;;;;20.90;99979.00;;;;2038592;28;20852;-59
2024/01/22 00:59:42;;;;;;;14.23;7.73;;;;;21.20;99971.00;;;;2053662;28;20229;-59
2024/01/22 01:00:42;;;;;;;12.83;7.40;;;;;21.20;99970.00;;;;2054151;28;20631;-58
2024/01/22 01:01:43;;;;;;;12.07;7.40;;;;;21.20;99971.00;;;;2049831;28;20680;-58
2024/01/22 01:02:43;;;;;;;10.60;6.60;;;;;21.20;99964.00;;;;2046042;28;20720;-57
2024/01/22 01:03:43;;;;;;;12.80;6.93;;;;;21.20;99954.00;;;;2035366;28;20681;-57
2024/01/22 01:04:44;;;;;;;11.17;7.53;;;;;21.20;99956.00;;;;2048321;28;20307;-58
2024/01/22 01:05:44;;;;;;;10.17;6.87;;;;;21.20;99944.00;;;;2055835;28;20225;-56
2024/01/22 01:06:44;;;;;;;9.47;6.83;;;;;21.20;99951.00;;;;2054618;28;20200;-57
2024/01/22 01:07:45;;;;;;;9.77;6.67;;;;;21.20;99958.00;;;;2052853;28;20200;-58
2024/01/22 01:08:45;;;;;;;10.37;7.33;;;;;21.20;99940.00;;;;2040020;28;20839;-57
2024/01/22 01:09:45;;;;;;;9.23;6.67;;;;;21.20;99947.00;;;;2057878;28;20722;-57
2024/01/22 01:10:46;;;;;;;11.43;6.97;;;;;21.10;99933.00;;;;2061231;28;20942;-56
2024/01/22 01:11:46;;;;;;;11.33;6.70;;;;;21.20;99948.00;;;;2051927;28;20954;-57
2024/01/22 01:12:46;;;;;;;10.40;6.53;;;;;21.20;99930.00;;;;2051794;28;20212;-57
2024/01/22 01:13:47;;;;;;;9.67;6.90;;;;;21.20;99919.00;;;;2043696;28;20623;-58
2024/01/22 01:14:47;;;;;;;10.63;7.10;;;;;21.10;99925.00;;;;2053964;28;20235;-57
2024/01/22 01:15:47;;;;;;;8.93;6.30;;;;;21.10;99913.00;;;;2054060;28;20310;-57
2024/01/22 01:16:48;;;;;;;10.70;6.97;;;;;21.10;99922.00;;;;2044266;28;20204;-58
2024/01/22 01:17:48;;;;;;;10.33;6.20;;;;;21.10;99926.00;;;;2048046;28;20232;-57
2024/01/22 01:18:48;;;;;;;10.90;6.40;;;;;21.10;99927.00;;;;2040692;28;20219;-57
2024/01/22 01:19:49;;;;;;;11.43;6.67;;;;;21.20;99929.00;;;;2047154;28;20212;-57
2024/01/22 01:20:49;;;;;;;9.20;6.30;;;;;21.20;99931.00;;;;2046338;28;20213;-59
2024/01/22 01:21:49;;;;;;;9.00;5.83;;;;;21.10;99913.00;;;;2052907;28;20232;-59
2024/01/22 01:22:50;;;;;;;9.90;6.40;;;;;21.10;99922.00;;;;2049147;28;20238;-57
2024/01/22 01:23:50;;;;;;;10.07;6.77;;;;;21.10;99914.00;;;;2038716;28;20227;-58
2024/01/22 01:24:50;;;;;;;11.20;6.73;;;;;21.10;99896.00;;;;2049448;28;20724;-57
2024/01/22 01:25:51;;;;;;;8.80;5.57;;;;;21.10;99896.00;;;;2045830;28;20220;-57
2024/01/22 01:26:51;;;;;;;9.10;6.10;;;;;21.10;99789.00;;;;2053708;28;20223;-57
2024/01/22 01:27:51;;;;;;;9.90;5.70;;;;;21.10;99913.00;;;;2052970;28;20219;-59
2024/01/22 01:28:52;;;;;;;7.90;5.83;;;;;21.10;99898.00;;;;2043030;28;20590;-58
2024/01/22 01:29:55;;;;;;;9.90;6.20;;;;;21.10;99893.00;;;;2052930;28;20762;-58
2024/01/22 01:30:55;;;;;;;7.55;5.65;;;;;21.10;99886.00;;;;2053107;28;20237;-56
2024/01/22 01:31:56;;;;;;;8.87;5.83;;;;;21.10;99876.00;;;;2048724;28;20212;-58
2024/01/22 01:32:56;;;;;;;9.87;5.40;;;;;21.10;99873.00;;;;2050017;28;20242;-57
2024/01/22 01:33:56;;;;;;;9.10;5.67;;;;;21.10;99882.00;;;;2042795;28;20223;-58
2024/01/22 01:34:57;;;;;;;7.63;5.83;;;;;21.10;99875.00;;;;2048448;28;20212;-59
2024/01/22 01:35:57;;;;;;;8.60;5.60;;;;;21.10;99873.00;;;;2054981;28;20258;-56
2024/01/22 01:36:57;;;;;;;9.90;5.17;;;;;21.10;99860.00;;;;2061765;28;20211;-57
2024/01/22 01:37:58;;;;;;;10.27;5.73;;;;;21.10;99857.00;;;;2051766;28;20221;-56
2024/01/22 01:38:58;;;;;;;9.13;5.10;;;;;21.10;99878.00;;;;2038476;28;20240;-58
2024/01/22 01:39:59;;;;;;;7.23;5.50;;;;;21.10;99879.00;;;;2049814;28;20220;-57
2024/01/22 01:41:00;;;;;;;7.95;5.10;;;;;21.00;99869.00;;;;2053405;28;20242;-57
2024/01/22 01:42:00;;;;;;;6.90;4.73;;;;;20.30;99865.00;;;;2061748;28;20702;-56
2024/01/22 01:43:00;;;;;;;9.03;5.67;;;;;21.10;99876.00;;;;2047684;28;20231;-58
2024/01/22 01:44:01;;;;;;;8.90;4.80;;;;;21.10;99856.00;;;;2034006;28;21590;-60
2024/01/22 01:45:01;;;;;;;8.17;5.50;;;;;21.00;99878.00;;;;2050566;28;20220;-57
2024/01/22 01:46:01;;;;;;;8.07;5.73;;;;;21.00;99875.00;;;;2053685;28;20245;-56
2024/01/22 01:47:02;;;;;;;7.60;5.30;;;;;21.00;99874.00;;;;2059801;28;20215;-57
2024/01/22 01:48:02;;;;;;;8.33;5.60;;;;;21.00;99874.00;;;;2044460;28;20220;-58
2024/01/22 01:49:02;;;;;;;10.63;5.47;;;;;21.00;99851.00;;;;2037510;28;20215;-58
2024/01/22 01:50:03;;;;;;;9.30;5.47;;;;;21.00;99867.00;;;;2053746;28;20689;-58
2024/01/22 01:51:03;;;;;;;8.50;5.40;;;;;21.00;99893.00;;;;2057013;28;20731;-57
2024/01/22 01:52:04;;;;;;;7.27;4.90;;;;;21.00;99877.00;;;;2043516;28;21016;-55
2024/01/22 01:53:04;;;;;;;8.33;5.10;;;;;21.00;99879.00;;;;2029807;29;20221;-56
2024/01/22 01:54:06;;;;;;;9.27;5.33;;;;;21.00;99893.00;;;;2032939;29;20222;-57
2024/01/22 01:55:07;;;;;;;8.07;4.88;;;;;21.00;99883.00;;;;2055779;28;20214;-57
2024/01/22 01:56:08;;;;;;;7.72;4.85;;;;;21.00;99893.00;;;;2061358;28;20219;-58
2024/01/22 01:57:08;;;;;;;7.47;4.77;;;;;21.00;99895.00;;;;2048576;28;20212;-59
2024/01/22 01:58:09;;;;;;;10.00;4.90;;;;;21.00;99895.00;;;;2044692;28;20220;-56
2024/01/22 01:59:09;;;;;;;6.63;4.40;;;;;21.00;99904.00;;;;2043138;28;21258;-59
2024/01/22 02:00:10;;;;;;;6.30;4.83;;;;;21.00;99916.00;;;;2044668;28;20212;-57
2024/01/22 02:01:10;;;;;;;7.30;4.80;;;;;21.00;99906.00;;;;2060789;28;20266;-58
2024/01/22 02:02:11;;;;;;;6.00;4.23;;;;;20.60;99896.00;;;;2047597;28;20227;-57
2024/01/22 02:03:12;;;;;;;7.05;4.63;;;;;21.00;99895.00;;;;2039542;28;20216;-56
2024/01/22 02:04:12;;;;;;;7.50;4.10;;;;;21.00;99909.00;;;;2045243;28;20220;-55
2024/01/22 02:05:16;;;;;;;7.00;4.53;;;;;21.00;99905.00;;;;2046352;28;20262;-56
2024/01/22 02:06:16;;;;;;;8.30;4.63;;;;;21.00;99915.00;;;;2044919;28;20713;-56
2024/01/22 02:07:17;;;;;;;7.07;4.30;;;;;21.00;99910.00;;;;2045661;28;20368;-56
2024/01/22 02:08:17;;;;;;;7.37;4.90;;;;;21.00;99904.00;;;;2041639;28;20228;-56
2024/01/22 02:09:17;;;;;;;7.27;4.30;;;;;21.00;99892.00;;;;2053558;28;20210;-59
2024/01/22 02:10:18;;;;;;;5.90;4.00;;;;;21.00;99867.00;;;;2057985;28;20215;-59
2024/01/22 02:11:22;;;;;;;7.03;4.47;;;;;21.00;99874.00;;;;2047571;28;20240;-59
2024/01/22 02:12:23;;;;;;;7.28;4.53;;;;;20.90;99862.00;;;;2048514;28;20215;-57
2024/01/22 02:13:25;;;;;;;7.47;4.33;;;;;20.90;99865.00;;;;2036000;28;20216;-58
2024/01/22 02:14:26;;;;;;;6.18;4.10;;;;;20.90;99882.00;;;;2044683;28;20931;-58
2024/01/22 02:15:26;;;;;;;7.40;4.47;;;;;20.90;99881.00;;;;2049322;28;20216;-59
2024/01/22 02:16:26;;;;;;;5.70;4.03;;;;;21.00;99875.00;;;;2044757;28;20302;-58
2024/01/22 02:17:27;;;;;;;6.90;4.23;;;;;21.00;99877.00;;;;2051653;28;20219;-58
2024/01/22 02:18:27;;;;;;;6.37;4.10;;;;;21.00;99873.00;;;;2041903;28;20235;-58
2024/01/22 02:19:27;;;;;;;6.37;4.13;;;;;21.00;99874.00;;;;2049796;28;20998;-57
2024/01/22 02:20:28;;;;;;;6.03;3.97;;;;;20.90;99876.00;;;;2044113;28;20589;-59
2024/01/22 02:21:28;;;;;;;5.90;3.77;;;;;21.00;99863.00;;;;2044870;28;20639;-59
2024/01/22 02:22:29;;;;;;;6.80;3.90;;;;;21.00;99860.00;;;;2049493;28;20244;-59
2024/01/22 02:23:29;;;;;;;5.47;3.40;;;;;20.90;99859.00;;;;2039965;28;20227;-58
2024/01/22 02:24:29;;;;;;;5.97;3.97;;;;;20.90;99856.00;;;;2044448;28;20220;-58
2024/01/22 02:25:30;;;;;;;7.10;4.97;;;;;20.90;99847.00;;;;2044745;28;20220;-58
2024/01/22 02:26:30;;;;;;;5.27;3.80;;;;;20.90;99846.00;;;;2047451;28;20230;-58
2024/01/22 02:27:30;;;;;;;6.30;4.03;;;;;20.90;99840.00;;;;2049371;28;20604;-57
2024/01/22 02:28:32;;;;;;;6.20;4.20;;;;;20.90;99845.00;;;;2041683;28;21217;-58
2024/01/22 02:29:32;;;;;;;5.50;3.55;;;;;20.90;99852.00;;;;2045564;28;20208;-59
2024/01/22 02:30:33;;;;;;;6.17;3.57;;;;;20.90;99850.00;;;;2052362;28;20672;-58
2024/01/22 02:31:33;;;;;;;6.63;3.80;;;;;20.90;99835.00;;;;2045605;28;20681;-58
2024/01/22 02:32:33;;;;;;;5.10;3.10;;;;;20.90;99827.00;;;;2045405;28;20208;-58
2024/01/22 02:33:34;;;;;;;5.57;3.70;;;;;20.90;99838.00;;;;2037674;28;20232;-58
2024/01/22 02:34:34;;;;;;;6.80;3.53;;;;;20.90;99827.00;;;;2052984;28;20291;-57
2024/01/22 02:35:35;;;;;;;6.90;4.30;;;;;20.90;99838.00;;;;2044498;28;20224;-58
2024/01/22 02:36:35;;;;;;;4.77;3.63;;;;;20.90;99823.00;;;;2045659;28;20260;-58
2024/01/22 02:37:36;;;;;;;6.30;3.97;;;;;20.80;99817.00;;;;2048085;28;20219;-59
2024/01/22 02:38:36;;;;;;;5.03;3.60;;;;;20.90;99820.00;;;;2030942;28;20285;-57
2024/01/22 02:39:37;;;;;;;7.00;4.20;;;;;20.90;99825.00;;;;2036638;28;20225;-56
2024/01/22 02:40:37;;;;;;;6.20;3.60;;;;;20.90;99819.00;;;;2047411;28;20243;-59
2024/01/22 02:41:38;;;;;;;4.43;3.10;;;;;20.90;99808.00;;;;2045863;28;20589;-59
2024/01/22 02:42:39;;;;;;;5.88;3.30;;;;;20.90;99817.00;;;;2048647;28;20251;-58
2024/01/22 02:43:39;;;;;;;5.20;3.10;;;;;20.90;99807.00;;;;2041919;28;20783;-57
2024/01/22 02:44:41;;;;;;;5.60;3.23;;;;;20.90;99811.00;;;;2046603;28;20684;-58
2024/01/22 02:45:41;;;;;;;5.15;3.28;;;;;20.80;99799.00;;;;2048613;28;20219;-58
2024/01/22 02:46:41;;;;;;;4.90;3.43;;;;;20.90;99803.00;;;;2053255;28;20303;-58
2024/01/22 02:47:42;;;;;;;5.40;3.97;;;;;20.80;99789.00;;;;2049926;28;20212;-58
2024/01/22 02:48:42;;;;;;;5.40;3.23;;;;;20.80;99790.00;;;;2035761;28;20286;-58
2024/01/22 02:49:42;;;;;;;5.43;3.10;;;;;20.80;99786.00;;;;2049296;28;20212;-58
2024/01/22 02:50:43;;;;;;;5.50;3.10;;;;;20.80;99774.00;;;;2053014;28;20704;-57
2024/01/22 02:51:43;;;;;;;6.77;3.47;;;;;20.80;99763.00;;;;2052200;28;20215;-57
2024/01/22 02:52:44;;;;;;;4.70;3.27;;;;;20.80;99744.00;;;;2050495;28;20274;-57
2024/01/22 02:53:45;;;;;;;5.47;3.03;;;;;20.80;99757.00;;;;2037695;28;20286;-58
2024/01/22 02:54:45;;;;;;;4.93;2.95;;;;;20.80;99741.00;;;;2050451;28;22037;-57
2024/01/22 02:55:45;;;;;;;5.40;3.20;;;;;20.80;99731.00;;;;2056922;28;20814;-57
2024/01/22 02:56:46;;;;;;;6.10;3.83;;;;;20.80;99720.00;;;;2047526;28;20216;-57
2024/01/22 02:57:46;;;;;;;6.20;3.80;;;;;20.80;99786.00;;;;2045334;28;20224;-58
2024/01/22 02:58:46;;;;;;;5.30;3.30;;;;;20.80;99739.00;;;;2041677;28;20964;-59
2024/01/22 02:59:47;;;;;;;4.80;3.17;;;;;20.80;99738.00;;;;2060400;28;20742;-58
2024/01/22 03:00:47;;;;;;;4.93;3.00;;;;;20.80;99756.00;;;;2055513;28;20224;-58
2024/01/22 03:01:47;;;;;;;5.57;3.70;;;;;20.80;99749.00;;;;2052284;28;20230;-58
2024/01/22 03:02:48;;;;;;;4.63;2.90;;;;;20.80;99746.00;;;;2050260;28;20248;-58
2024/01/22 03:03:48;;;;;;;6.00;3.30;;;;;20.80;99752.00;;;;2034285;28;20243;-59
2024/01/22 03:04:49;;;;;;;5.77;3.30;;;;;20.80;99751.00;;;;2046597;28;20270;-61
2024/01/22 03:05:49;;;;;;;4.40;2.80;;;;;20.80;99758.00;;;;2049933;28;20291;-58
2024/01/22 03:06:49;;;;;;;4.63;3.20;;;;;20.80;99756.00;;;;2044917;28;20223;-59
2024/01/22 03:07:50;;;;;;;4.80;2.90;;;;;20.80;99759.00;;;;2051954;28;20207;-58
2024/01/22 03:08:50;;;;;;;6.27;3.03;;;;;20.80;99752.00;;;;2040306;28;20226;-57
2024/01/22 03:09:50;;;;;;;5.83;3.00;;;;;20.80;99745.00;;;;2049706;28;20211;-58
2024/01/22 03:10:51;;;;;;;4.90;3.10;;;;;20.80;99760.00;;;;2049912;28;20247;-57
2024/01/22 03:11:51;;;;;;;5.93;3.20;;;;;20.80;99754.00;;;;2046506;28;20204;-59
2024/01/22 03:12:52;;;;;;;5.70;3.07;;;;;20.80;99758.00;;;;2049851;28;20242;-59
2024/01/22 03:13:52;;;;;;;4.90;3.10;;;;;20.80;99752.00;;;;2034244;28;20252;-59
2024/01/22 03:14:52;;;;;;;4.83;2.60;;;;;20.80;99753.00;;;;2051945;28;20542;-57
2024/01/22 03:15:53;;;;;;;5.83;2.80;;;;;20.80;99739.00;;;;2052970;28;20234;-57
2024/01/22 03:16:53;;;;;;;4.47;2.70;;;;;20.80;99723.00;;;;2052440;28;20219;-57
2024/01/22 03:17:53;;;;;;;5.87;2.70;;;;;20.80;99749.00;;;;2049572;28;20344;-59
2024/01/22 03:18:54;;;;;;;4.87;3.23;;;;;20.80;99749.00;;;;2036393;28;20227;-57
2024/01/22 03:19:54;;;;;;;4.80;2.80;;;;;20.80;99750.00;;;;2055873;28;20214;-58
2024/01/22 03:20:54;;;;;;;4.20;2.77;;;;;20.80;99750.00;;;;2053615;28;20310;-58
2024/01/22 03:21:55;;;;;;;5.07;2.97;;;;;20.70;99742.00;;;;2051489;28;20231;-59
2024/01/22 03:22:55;;;;;;;4.00;2.80;;;;;20.70;99746.00;;;;2052410;28;20231;-58
2024/01/22 03:23:55;;;;;;;5.07;2.87;;;;;20.70;99750.00;;;;2041275;28;20254;-57
2024/01/22 03:24:56;;;;;;;4.10;2.30;;;;;20.70;99735.00;;;;2053068;28;20219;-58
2024/01/22 03:25:56;;;;;;;4.23;2.50;;;;;20.80;99745.00;;;;2050570;28;20220;-58
2024/01/22 03:26:56;;;;;;;4.60;2.80;;;;;20.70;99749.00;;;;2049179;28;20230;-58
2024/01/22 03:27:57;;;;;;;4.50;2.40;;;;;20.70;99742.00;;;;2044997;28;20224;-58
2024/01/22 03:28:57;;;;;;;4.63;2.63;;;;;20.70;99741.00;;;;2037667;28;20232;-57
2024/01/22 03:29:57;;;;;;;4.13;2.47;;;;;20.70;99713.00;;;;2048424;28;20234;-58
2024/01/22 03:30:58;;;;;;;3.37;2.23;;;;;20.70;99719.00;;;;2051920;28;20223;-58
2024/01/22 03:31:58;;;;;;;4.63;2.77;;;;;20.70;99730.00;;;;2049175;28;20286;-59
2024/01/22 03:32:58;;;;;;;4.63;2.90;;;;;20.70;99736.00;;;;2048047;28;20302;-58
2024/01/22 03:33:59;;;;;;;4.93;2.80;;;;;20.70;99731.00;;;;2037758;28;20220;-57
2024/01/22 03:34:59;;;;;;;4.93;3.10;;;;;20.70;99725.00;;;;2052514;28;20272;-58
2024/01/22 03:35:59;;;;;;;4.03;2.40;;;;;20.70;99722.00;;;;2048283;28;20322;-58
2024/01/22 03:37:00;;;;;;;3.87;2.57;;;;;20.70;99728.00;;;;2048865;28;20219;-58
2024/01/22 03:38:00;;;;;;;4.90;2.63;;;;;20.70;99721.00;;;;2045034;28;20243;-57
2024/01/22 03:39:00;;;;;;;5.00;3.13;;;;;20.70;99711.00;;;;2038740;28;20215;-59
2024/01/22 03:40:01;;;;;;;4.03;2.30;;;;;20.20;99723.00;;;;2046430;28;20228;-59
2024/01/22 03:41:01;;;;;;;5.70;2.87;;;;;20.70;99713.00;;;;2044924;28;20216;-57
2024/01/22 03:42:02;;;;;;;4.40;2.60;;;;;20.70;99714.00;;;;2052738;28;20226;-58
2024/01/22 03:43:02;;;;;;;4.50;2.50;;;;;20.70;99712.00;;;;2047611;28;20220;-57
2024/01/22 03:44:04;;;;;;;4.30;2.40;;;;;20.70;99441.00;;;;2033820;28;20250;-57
2024/01/22 03:45:05;;;;;;;3.50;2.20;;;;;20.70;99701.00;;;;2048255;28;20218;-58
2024/01/22 03:46:05;;;;;;;4.27;2.50;;;;;20.70;99698.00;;;;2048150;28;20223;-56
2024/01/22 03:47:06;;;;;;;3.20;2.00;;;;;20.70;99702.00;;;;2045311;28;20219;-57
2024/01/22 03:48:06;;;;;;;4.10;2.63;;;;;20.70;99701.00;;;;2047923;28;20244;-57
2024/01/22 03:49:07;;;;;;;4.73;2.60;;;;;20.70;99712.00;;;;2034778;28;20255;-59
2024/01/22 03:50:07;;;;;;;3.83;2.70;;;;;20.70;99708.00;;;;2056665;28;20709;-59
2024/01/22 03:51:08;;;;;;;4.00;2.57;;;;;20.70;99700.00;;;;2050584;28;20697;-58
2024/01/22 03:52:09;;;;;;;4.47;2.53;;;;;20.70;99702.00;;;;2048890;28;20220;-58
2024/01/22 03:53:09;;;;;;;4.27;2.20;;;;;20.70;99709.00;;;;2044578;28;20227;-59
2024/01/22 03:54:09;;;;;;;4.50;2.80;;;;;20.70;99686.00;;;;2050316;28;20226;-59
2024/01/22 03:55:10;;;;;;;3.63;2.30;;;;;20.70;99707.00;;;;2047860;28;20952;-59
2024/01/22 03:56:10;;;;;;;3.83;2.20;;;;;20.70;99695.00;;;;2043381;28;20873;-57
2024/01/22 03:57:10;;;;;;;3.80;2.10;;;;;20.60;99677.00;;;;2056415;28;20910;-58
2024/01/22 03:58:11;;;;;;;4.33;2.30;;;;;20.70;99674.00;;;;2040653;28;20717;-58
2024/01/22 03:59:12;;;;;;;4.87;2.73;;;;;20.70;99661.00;;;;2048974;28;20704;-59
2024/01/22 04:00:12;;;;;;;3.70;2.20;;;;;20.70;99675.00;;;;2052852;28;20493;-58
2024/01/22 04:01:22;;;;;;;4.43;2.17;;;;;20.70;99676.00;;;;2048725;28;20740;-58
2024/01/22 04:02:22;;;;;;;3.60;1.80;;;;;20.60;99657.00;;;;2044789;28;20271;-56
2024/01/22 04:03:23;;;;;;;4.17;1.90;;;;;20.60;99667.00;;;;2035430;28;20278;-58
2024/01/22 04:04:23;;;;;;;4.40;2.40;;;;;20.60;99653.00;;;;2043473;28;20221;-58
2024/01/22 04:05:23;;;;;;;4.33;2.23;;;;;20.60;99655.00;;;;2051025;28;20227;-58
2024/01/22 04:06:24;;;;;;;4.20;2.30;;;;;20.60;99647.00;;;;2052600;28;20306;-59
2024/01/22 04:07:24;;;;;;;3.70;2.30;;;;;20.60;99645.00;;;;2051667;28;20227;-58
2024/01/22 04:08:25;;;;;;;4.07;2.50;;;;;20.60;99651.00;;;;2043071;28;20285;-57
2024/01/22 04:09:25;;;;;;;3.33;2.20;;;;;20.60;99651.00;;;;2047143;28;20247;-58
2024/01/22 04:10:26;;;;;;;3.53;1.90;;;;;20.70;99662.00;;;;2052760;28;20215;-57
2024/01/22 04:11:27;;;;;;;4.07;1.88;;;;;20.60;99651.00;;;;2052490;28;20222;-58
2024/01/22 04:12:27;;;;;;;3.40;1.90;;;;;20.70;99647.00;;;;2049827;28;20238;-58
2024/01/22 04:13:27;;;;;;;3.57;1.77;;;;;20.60;99658.00;;;;2034857;28;20385;-57
2024/01/22 04:14:28;;;;;;;3.67;2.17;;;;;20.60;99653.00;;;;2048743;28;20819;-57
2024/01/22 04:15:28;;;;;;;3.47;2.30;;;;;20.60;99671.00;;;;2052719;28;20584;-59
2024/01/22 04:16:28;;;;;;;3.10;1.73;;;;;20.60;99655.00;;;;2049992;28;20600;-59
2024/01/22 04:17:29;;;;;;;3.40;1.90;;;;;20.60;99655.00;;;;2045034;28;20238;-58
2024/01/22 04:18:29;;;;;;;2.80;1.63;;;;;20.60;99653.00;;;;2035146;28;20236;-58
2024/01/22 04:19:30;;;;;;;3.70;2.20;;;;;20.60;99655.00;;;;2050656;28;20867;-58
2024/01/22 04:20:30;;;;;;;4.03;2.00;;;;;20.60;99634.00;;;;2054261;28;20230;-58
2024/01/22 04:21:31;;;;;;;4.43;2.10;;;;;20.60;99649.00;;;;2046404;28;20223;-57
2024/01/22 04:22:31;;;;;;;3.00;1.80;;;;;20.60;99658.00;;;;2049880;28;20215;-58
2024/01/22 04:23:33;;;;;;;3.00;1.60;;;;;20.60;99641.00;;;;2035336;28;20270;-59
2024/01/22 04:24:33;;;;;;;3.97;2.10;;;;;20.60;99631.00;;;;2046131;28;20220;-58
2024/01/22 04:25:34;;;;;;;3.70;1.87;;;;;20.60;99642.00;;;;2045620;28;20280;-59
2024/01/22 04:26:34;;;;;;;3.10;1.70;;;;;20.60;99647.00;;;;2053561;28;20223;-59
2024/01/22 04:27:34;;;;;;;3.97;1.87;;;;;20.60;99623.00;;;;2045943;28;20220;-58
2024/01/22 04:28:34;;;;;;;4.13;2.00;;;;;20.60;99642.00;;;;2041213;28;20239;-58
2024/01/22 04:29:35;;;;;;;3.77;1.77;;;;;19.70;99640.00;;;;2046003;28;20228;-58
2024/01/22 04:30:35;;;;;;;2.80;1.50;;;;;20.60;99636.00;;;;2058120;28;20290;-60
2024/01/22 04:31:36;;;;;;;3.13;1.70;;;;;20.60;99619.00;;;;2046144;28;20228;-58
2024/01/22 04:32:36;;;;;;;3.17;1.93;;;;;20.60;99639.00;;;;2045410;28;20220;-59
2024/01/22 04:33:37;;;;;;;2.70;1.50;;;;;20.60;99643.00;;;;2037476;28;20838;-59
2024/01/22 04:34:40;;;;;;;3.63;2.00;;;;;20.60;99668.00;;;;2053732;28;20726;-59
2024/01/22 04:35:40;;;;;;;2.85;1.50;;;;;20.60;99669.00;;;;2045962;28;20956;-58
2024/01/22 04:36:41;;;;;;;4.00;2.03;;;;;20.50;99628.00;;;;2045768;28;20225;-58
2024/01/22 04:37:41;;;;;;;3.27;1.57;;;;;20.60;99634.00;;;;2044870;28;20214;-58
2024/01/22 04:38:42;;;;;;;3.50;1.73;;;;;20.60;99630.00;;;;2033711;28;20232;-58
2024/01/22 04:39:42;;;;;;;3.03;1.43;;;;;20.60;99632.00;;;;2049657;28;20250;-58
2024/01/22 04:40:42;;;;;;;3.60;1.70;;;;;20.60;99619.00;;;;2046193;28;20246;-57
2024/01/22 04:41:43;;;;;;;3.20;1.50;;;;;20.60;99621.00;;;;2049659;28;20220;-58
2024/01/22 04:42:44;;;;;;;3.73;1.70;;;;;20.50;99628.00;;;;2048692;28;20263;-57
2024/01/22 04:43:44;;;;;;;3.10;1.73;;;;;20.60;99628.00;;;;2039164;28;20231;-58
2024/01/22 04:44:44;;;;;;;3.67;1.93;;;;;20.60;99633.00;;;;2041668;28;22608;-58
2024/01/22 04:45:45;;;;;;;3.07;1.50;;;;;20.60;99638.00;;;;2047067;28;20701;-58
2024/01/22 04:46:45;;;;;;;3.10;1.77;;;;;20.50;99623.00;;;;2048699;28;20972;-57
2024/01/22 04:47:45;;;;;;;3.90;1.80;;;;;20.50;99618.00;;;;2045782;28;20910;-58
2024/01/22 04:48:45;;;;;;;3.80;1.70;;;;;20.50;99638.00;;;;2036633;28;20253;-58
2024/01/22 04:49:46;;;;;;;4.67;1.50;;;;;20.50;99609.00;;;;2045237;28;20212;-57
2024/01/22 04:50:46;;;;;;;2.90;1.97;;;;;20.60;99620.00;;;;2047482;28;20212;-59
2024/01/22 04:51:46;;;;;;;2.87;1.53;;;;;20.60;99602.00;;;;2050369;28;20226;-57
2024/01/22 04:52:47;;;;;;;3.23;1.57;;;;;20.50;99623.00;;;;2038385;28;20209;-58
2024/01/22 04:53:47;;;;;;;3.83;1.90;;;;;20.50;99619.00;;;;2030598;28;20790;-59
2024/01/22 04:54:47;;;;;;;3.97;1.90;;;;;20.50;99617.00;;;;2039145;28;20954;-56
2024/01/22 04:55:48;;;;;;;3.37;1.67;;;;;20.50;99616.00;;;;2042926;28;20573;-59
2024/01/22 04:56:48;;;;;;;2.53;1.37;;;;;20.50;99625.00;;;;2044634;28;20235;-58
2024/01/22 04:57:49;;;;;;;3.10;1.60;;;;;20.50;99604.00;;;;2048631;28;20212;-59
2024/01/22 04:58:49;;;;;;;3.87;1.60;;;;;20.50;99602.00;;;;2037332;28;20219;-60
2024/01/22 04:59:49;;;;;;;3.00;1.70;;;;;20.50;99604.00;;;;2047723;28;20220;-59
2024/01/22 05:00:50;;;;;;;2.47;1.40;;;;;20.50;99611.00;;;;2052190;28;20675;-59